Terminal Aerodrome Forecast
Issued by NWS Key West, FL

Home | Current Version | Previous Version | Text Only | Print | Product List | Glossary On
Versions: 1 2 3 4 5 6 7 8 9 10 11 12 13 14 15 16 17 18 19 20 21 22
000
FTUS42 KKEY 170704 AAA
TAFEYW
TAF AMD
KEYW 170704Z 1707/1806 10010G17KT P6SM VCSH SCT027 SCT060
      TEMPO 1707/1709 P6SM -RA BKN028
     FM171500 10012KT P6SM FEW035 SCT060=

USA.gov is the U.S. government's official web portal to all federal, state and local government web resources and services.